Time;durP1;ratioP1;P1;durP2;ratioP2;P2;SDS_P1;SDS_P2;PMS_P1;PMS_P2;Temp;Humidity;BMP_temperature;BMP_pressure;BME280_temperature;BME280_humidity;BME280_pressure;Samples;Min_cycle;Max_cycle;Signal;HPM_P1;HPM_P2
2021/12/12 00:02:23;;;;;;;30.32;17.37;;;;;;;1.83;100.00;102101.75;1724333;82;21086;-84
2021/12/12 00:04:51;;;;;;;24.23;15.58;;;;;;;1.88;100.00;102097.83;1727942;82;21006;-83
2021/12/12 00:07:23;;;;;;;21.85;15.25;;;;;;;1.85;100.00;102089.74;1703445;81;21042;-84
2021/12/12 00:09:55;;;;;;;31.87;16.23;;;;;;;1.82;100.00;102092.34;1709594;82;21034;-83
2021/12/12 00:12:29;;;;;;;30.52;16.67;;;;;;;1.72;100.00;102100.63;1700515;83;21113;-83
2021/12/12 00:14:57;;;;;;;23.90;16.30;;;;;;;1.73;100.00;102097.61;1714518;83;21063;-83
2021/12/12 00:17:27;;;;;;;23.18;16.85;;;;;;;1.80;100.00;102091.95;1697891;82;21038;-84
2021/12/12 00:19:54;;;;;;;24.25;16.52;;;;;;;1.78;100.00;102085.98;1709586;82;20990;-83
2021/12/12 00:22:26;;;;;;;22.17;15.58;;;;;;;1.71;100.00;102078.38;1710340;83;21093;-82
2021/12/12 00:24:53;;;;;;;;;;;;;;;1.71;100.00;102074.98;1728991;81;21841;-83
2021/12/12 00:27:21;;;;;;;22.15;15.90;;;;;;;1.75;100.00;102079.62;1700616;83;20486;-82
2021/12/12 00:29:50;;;;;;;23.40;16.27;;;;;;;1.79;100.00;102082.13;1705023;83;21664;-82
2021/12/12 00:32:19;;;;;;;25.37;16.17;;;;;;;1.87;100.00;102085.86;1699439;83;21132;-82
2021/12/12 00:34:51;;;;;;;22.50;15.95;;;;;;;1.87;100.00;102084.16;1699136;83;21094;-82
2021/12/12 00:37:18;;;;;;;26.52;16.52;;;;;;;1.93;100.00;102092.62;1694314;83;21903;-85
2021/12/12 00:39:55;;;;;;;26.07;17.05;;;;;;;1.93;100.00;102106.76;1696395;83;21101;-85
2021/12/12 00:42:27;;;;;;;25.90;17.23;;;;;;;1.91;100.00;102093.95;1734079;81;21037;-83
2021/12/12 00:45:01;;;;;;;24.47;15.53;;;;;;;1.92;100.00;102094.37;1741704;81;20999;-83
2021/12/12 00:47:27;;;;;;;24.67;16.32;;;;;;;1.89;100.00;102096.52;1733031;82;21018;-84
2021/12/12 00:49:55;;;;;;;21.60;15.10;;;;;;;1.88;100.00;102090.13;1705821;82;21144;-84
2021/12/12 00:52:29;;;;;;;24.12;16.00;;;;;;;1.81;100.00;102094.50;1719199;82;21050;-82
2021/12/12 00:54:56;;;;;;;22.62;16.12;;;;;;;1.77;100.00;102093.28;1705155;82;20991;-80
2021/12/12 00:57:23;;;;;;;22.82;15.85;;;;;;;1.70;100.00;102102.81;1727269;81;21026;-82
2021/12/12 00:59:50;;;;;;;22.30;15.35;;;;;;;1.64;100.00;102106.75;1731437;82;21046;-84
2021/12/12 01:02:24;;;;;;;23.55;15.28;;;;;;;1.53;100.00;102109.02;1733695;82;21813;-83
2021/12/12 01:04:55;;;;;;;21.17;15.30;;;;;;;1.48;100.00;102111.23;1701623;83;21070;-82
2021/12/12 01:07:31;;;;;;;22.10;15.10;;;;;;;1.43;100.00;102115.14;1694152;83;27335;-83
2021/12/12 01:10:06;;;;;;;24.32;15.48;;;;;;;1.41;100.00;102104.03;1691917;83;21044;-83
2021/12/12 01:12:35;;;;;;;21.07;14.05;;;;;;;1.43;100.00;102104.87;1703301;83;21529;-82
2021/12/12 01:15:23;;;;;;;18.50;13.88;;;;;;;1.50;100.00;102111.63;1700299;82;21175;-83
2021/12/12 01:17:54;;;;;;;21.33;14.53;;;;;;;1.53;100.00;102115.86;1688014;82;21055;-81
2021/12/12 01:20:30;;;;;;;19.00;13.65;;;;;;;1.52;100.00;102113.74;1707404;82;21610;-86
2021/12/12 01:23:03;;;;;;;22.25;14.68;;;;;;;1.55;100.00;102108.58;1724280;82;21172;-82
2021/12/12 01:25:35;;;;;;;16.40;12.20;;;;;;;1.57;100.00;102100.84;1727200;81;21003;-82
2021/12/12 01:28:05;;;;;;;19.75;13.43;;;;;;;1.64;100.00;102116.58;1726308;82;21985;-86
2021/12/12 01:30:33;;;;;;;22.15;13.35;;;;;;;1.66;100.00;102121.69;1746005;81;21046;-81
2021/12/12 01:33:00;;;;;;;23.57;13.95;;;;;;;1.69;100.00;102120.37;1710665;82;21082;-83
2021/12/12 01:35:28;;;;;;;21.45;13.90;;;;;;;1.69;100.00;102121.20;1720162;81;21046;-82
2021/12/12 01:40:50;;;;;;;19.52;14.40;;;;;;;1.75;100.00;102122.84;1708062;82;21157;-82
2021/12/12 01:43:32;;;;;;;19.27;13.78;;;;;;;1.76;100.00;102123.72;1700729;81;21025;-81
2021/12/12 01:46:21;;;;;;;18.77;13.53;;;;;;;1.77;100.00;102115.11;1701609;82;20995;-82
2021/12/12 01:49:00;;;;;;;16.67;12.47;;;;;;;1.76;100.00;102112.99;1701018;82;21012;-82
2021/12/12 01:51:29;;;;;;;22.10;12.58;;;;;;;1.67;100.00;102113.98;1704965;82;21007;-82
2021/12/12 01:54:00;;;;;;;19.15;13.88;;;;;;;1.60;100.00;102115.35;1723378;82;21074;-84
2021/12/12 01:56:39;;;;;;;19.27;12.28;;;;;;;1.58;100.00;102114.10;1732344;81;21050;-81
2021/12/12 01:59:07;;;;;;;17.27;12.70;;;;;;;1.53;100.00;102114.16;1739708;81;21059;-81
2021/12/12 02:01:39;;;;;;;22.25;14.07;;;;;;;1.48;100.00;102105.68;1738928;80;21007;-82
2021/12/12 02:04:12;;;;;;;24.25;13.85;;;;;;;1.49;100.00;102110.37;1738076;81;21046;-86
2021/12/12 02:06:44;;;;;;;15.68;11.55;;;;;;;1.54;100.00;102118.84;1730989;81;21202;-83
2021/12/12 02:09:13;;;;;;;17.30;11.38;;;;;;;1.56;100.00;102123.09;1735054;81;21022;-84
2021/12/12 02:11:46;;;;;;;25.50;12.73;;;;;;;1.51;100.00;102120.19;1742453;80;21051;-84
2021/12/12 02:14:17;;;;;;;20.45;12.65;;;;;;;1.38;100.00;102113.91;1701911;83;21087;-82
2021/12/12 02:16:55;;;;;;;22.15;13.68;;;;;;;1.39;100.00;102104.06;1696573;82;21071;-83
2021/12/12 02:19:34;;;;;;;17.35;11.55;;;;;;;1.46;100.00;102100.13;1690088;83;20979;-82
2021/12/12 02:35:53;;;;;;;15.28;10.48;;;;;;;1.35;100.00;102089.59;1729523;82;21086;-81
2021/12/12 02:38:24;;;;;;;15.25;10.43;;;;;;;1.30;100.00;102088.77;1715214;82;21680;-81
2021/12/12 02:40:56;;;;;;;16.87;10.30;;;;;;;1.22;100.00;102085.45;1690687;83;21023;-85
2021/12/12 02:43:27;;;;;;;17.15;9.58;;;;;;;1.09;100.00;102089.88;1680664;83;21595;-81
2021/12/12 02:45:57;;;;;;;15.98;9.70;;;;;;;1.01;100.00;102095.53;1677402;83;22206;-81
2021/12/12 02:48:32;;;;;;;15.45;10.30;;;;;;;0.93;100.00;102102.88;1695585;83;21624;-81
2021/12/12 02:51:08;;;;;;;16.15;10.75;;;;;;;0.83;100.00;102095.31;1691383;83;21969;-85
2021/12/12 02:53:40;;;;;;;16.17;10.55;;;;;;;0.74;100.00;102093.70;1689502;83;21518;-82
2021/12/12 02:56:19;;;;;;;20.43;11.73;;;;;;;0.70;100.00;102098.43;1711405;83;21076;-81
2021/12/12 02:58:47;;;;;;;20.20;11.83;;;;;;;0.69;100.00;102085.19;1707003;83;22009;-81
2021/12/12 03:01:32;;;;;;;19.95;13.18;;;;;;;0.68;100.00;102091.20;1703610;83;21592;-83
2021/12/12 03:03:59;;;;;;;26.75;15.13;;;;;;;0.70;100.00;102097.15;1698282;83;21431;-82
2021/12/12 03:06:32;;;;;;;25.60;15.15;;;;;;;0.67;100.00;102095.91;1700227;83;21090;-82
2021/12/12 03:09:07;;;;;;;26.50;16.62;;;;;;;0.68;100.00;102101.02;1680072;83;21550;-82
2021/12/12 03:11:34;;;;;;;29.63;17.10;;;;;;;0.74;100.00;102098.83;1722496;81;21181;-83
2021/12/12 03:14:03;;;;;;;32.65;19.55;;;;;;;0.73;100.00;102095.40;1754877;80;20993;-83
2021/12/12 03:16:33;;;;;;;37.98;22.42;;;;;;;0.69;100.00;102094.16;1717845;83;21085;-86
2021/12/12 03:19:00;;;;;;;42.20;23.77;;;;;;;0.65;100.00;102102.31;1724346;81;21039;-83
2021/12/12 03:21:32;;;;;;;48.17;23.10;;;;;;;0.61;100.00;102109.19;1729775;81;21041;-84
2021/12/12 03:24:05;;;;;;;46.92;26.02;;;;;;;0.60;100.00;102099.80;1774079;80;21143;-81
2021/12/12 03:26:34;;;;;;;42.55;23.35;;;;;;;0.59;100.00;102107.52;1745668;80;21013;-81
2021/12/12 03:29:01;;;;;;;44.08;22.55;;;;;;;0.61;100.00;102096.38;1715380;82;21531;-81
2021/12/12 03:31:33;;;;;;;36.63;21.65;;;;;;;0.70;100.00;102103.56;1730372;82;21042;-81
2021/12/12 03:34:10;;;;;;;39.60;21.77;;;;;;;0.70;100.00;102103.56;1706797;82;21081;-81
2021/12/12 03:36:37;;;;;;;41.42;22.00;;;;;;;0.67;100.00;102097.20;1729591;82;21875;-82
2021/12/12 03:39:09;;;;;;;43.23;23.05;;;;;;;0.67;100.00;102103.61;1732192;81;21578;-82
2021/12/12 03:41:40;;;;;;;42.48;22.60;;;;;;;0.66;100.00;102100.63;1707183;82;21125;-82
2021/12/12 03:44:13;;;;;;;40.10;21.23;;;;;;;0.64;100.00;102105.77;1727094;82;21532;-83
2021/12/12 03:46:41;;;;;;;49.73;25.72;;;;;;;0.64;100.00;102104.49;1712225;82;21046;-84
2021/12/12 03:49:10;;;;;;;52.70;28.50;;;;;;;0.69;100.00;102099.29;1704106;83;21090;-82
2021/12/12 03:51:40;;;;;;;53.92;28.07;;;;;;;0.71;100.00;102098.84;1706603;83;21070;-82
2021/12/12 03:54:07;;;;;;;50.33;27.17;;;;;;;0.72;100.00;102089.02;1699236;83;21600;-82
2021/12/12 03:56:34;;;;;;;54.10;27.75;;;;;;;0.74;100.00;102088.13;1698115;83;21065;-83
2021/12/12 03:59:04;;;;;;;57.38;29.98;;;;;;;0.80;100.00;102096.20;1700058;84;21051;-82
2021/12/12 04:01:36;;;;;;;57.73;28.30;;;;;;;0.83;100.00;102096.59;1704691;83;21101;-82
2021/12/12 04:04:15;;;;;;;64.10;29.92;;;;;;;0.82;100.00;102098.73;1707495;83;21022;-82
2021/12/12 04:06:43;;;;;;;59.55;28.20;;;;;;;0.80;100.00;102109.02;1677305;84;21042;-83
2021/12/12 04:09:15;;;;;;;68.90;31.80;;;;;;;0.68;100.00;102107.42;1696702;81;28240;-83
2021/12/12 04:11:50;;;;;;;60.30;30.32;;;;;;;0.56;100.00;102107.11;1678183;84;21034;-82
2021/12/12 04:14:17;;;;;;;65.20;32.13;;;;;;;0.53;100.00;102103.28;1681375;84;22072;-82
2021/12/12 04:16:50;;;;;;;74.40;35.03;;;;;;;0.47;100.00;102112.31;1715606;82;20999;-83
2021/12/12 04:19:17;;;;;;;65.45;31.30;;;;;;;0.43;100.00;102104.25;1678099;83;21050;-82
2021/12/12 04:21:45;;;;;;;71.30;32.25;;;;;;;0.40;100.00;102110.67;1720784;83;21054;-81
2021/12/12 04:24:26;;;;;;;69.32;31.30;;;;;;;0.40;100.00;102122.20;1679381;82;21753;-81
2021/12/12 04:26:54;;;;;;;65.30;31.23;;;;;;;0.33;100.00;102116.27;1709596;82;21240;-83
2021/12/12 04:29:32;;;;;;;75.75;33.53;;;;;;;0.24;100.00;102123.61;1707123;81;21078;-82
2021/12/12 04:32:04;;;;;;;72.22;32.55;;;;;;;0.24;100.00;102120.22;1691236;83;21053;-81
2021/12/12 04:34:35;;;;;;;74.80;32.48;;;;;;;0.19;100.00;102122.81;1742343;81;21523;-82
2021/12/12 04:37:04;;;;;;;74.60;31.93;;;;;;;0.12;100.00;102110.91;1706391;83;21022;-82
2021/12/12 04:39:38;;;;;;;67.00;30.95;;;;;;;0.10;100.00;102117.75;1736494;82;21606;-82
2021/12/12 04:42:24;;;;;;;69.58;33.70;;;;;;;0.15;100.00;102118.55;1701018;83;21098;-81
2021/12/12 04:44:56;;;;;;;68.12;30.32;;;;;;;0.10;100.00;102103.66;1696755;82;21119;-82
2021/12/12 04:51:01;;;;;;;69.95;30.65;;;;;;;0.04;100.00;102094.75;1720407;82;21015;-82
2021/12/12 04:53:33;;;;;;;69.05;34.03;;;;;;;0.09;100.00;102089.15;1709471;82;21854;-82
2021/12/12 04:56:18;;;;;;;67.67;31.37;;;;;;;0.18;100.00;102094.20;1694545;81;21602;-81
2021/12/12 04:59:07;;;;;;;79.20;32.60;;;;;;;0.27;100.00;102095.42;1718630;83;21066;-83
2021/12/12 05:01:50;;;;;;;63.42;31.65;;;;;;;0.28;100.00;102092.41;1719194;81;20977;-82
2021/12/12 05:04:25;;;;;;;60.95;29.05;;;;;;;0.25;100.00;102090.73;1708134;82;21038;-80
2021/12/12 05:07:06;;;;;;;65.90;32.00;;;;;;;0.15;100.00;102091.24;1707810;82;21058;-83
2021/12/12 05:09:39;;;;;;;86.28;31.20;;;;;;;0.15;100.00;102091.66;1714527;82;21068;-81
2021/12/12 05:12:23;;;;;;;59.98;28.38;;;;;;;0.06;100.00;102100.27;1695466;82;21088;-83
2021/12/12 05:14:56;;;;;;;58.23;26.50;;;;;;;0.03;100.00;102096.44;1711315;82;21027;-85
2021/12/12 05:17:31;;;;;;;53.30;27.98;;;;;;;0.02;100.00;102086.22;1712557;82;21044;-83
2021/12/12 05:20:02;;;;;;;48.23;26.85;;;;;;;0.00;100.00;102055.50;1694538;83;21083;-83
2021/12/12 05:22:34;;;;;;;49.80;26.90;;;;;;;-0.03;100.00;102043.55;1720529;81;21036;-82
2021/12/12 05:25:06;;;;;;;46.42;24.70;;;;;;;-0.11;100.00;102044.48;1686201;84;21626;-92
2021/12/12 05:27:37;;;;;;;49.18;25.27;;;;;;;-0.17;100.00;102056.89;1695599;84;21011;-82
2021/12/12 05:30:17;;;;;;;65.90;27.40;;;;;;;-0.14;100.00;102082.48;1690602;83;22296;-90
2021/12/12 05:32:50;;;;;;;60.33;26.60;;;;;;;-0.06;100.00;102106.75;1690472;83;21820;-83
2021/12/12 05:35:22;;;;;;;52.43;25.80;;;;;;;0.24;100.00;102114.65;1727270;81;21012;-81
2021/12/12 05:37:53;;;;;;;57.83;29.42;;;;;;;0.52;100.00;102118.69;1686646;83;21055;-84
2021/12/12 05:40:25;;;;;;;52.35;27.67;;;;;;;0.47;100.00;102130.27;1727006;81;21061;-82
2021/12/12 05:43:01;;;;;;;63.30;30.08;;;;;;;0.34;100.00;102133.80;1720047;82;21062;-85
2021/12/12 05:45:31;;;;;;;54.85;26.70;;;;;;;0.28;100.00;102136.80;1701971;83;21112;-84
2021/12/12 05:47:59;;;;;;;62.30;27.30;;;;;;;0.35;100.00;102134.22;1728729;82;21023;-82
2021/12/12 05:50:27;;;;;;;50.03;25.88;;;;;;;0.38;100.00;102129.92;1704048;82;21672;-83
2021/12/12 05:52:55;;;;;;;54.80;28.15;;;;;;;0.45;100.00;102139.26;1725984;82;21510;-83
2021/12/12 05:55:26;;;;;;;49.53;27.37;;;;;;;0.45;100.00;102149.92;1715647;82;21103;-83
2021/12/12 05:57:56;;;;;;;52.55;27.07;;;;;;;0.49;100.00;102149.05;1717332;81;21127;-84
2021/12/12 06:00:34;;;;;;;54.03;26.87;;;;;;;0.56;100.00;102153.26;1705784;83;21585;-85
2021/12/12 06:03:01;;;;;;;50.40;27.45;;;;;;;0.59;100.00;102153.66;1664898;84;21074;-84
2021/12/12 06:05:32;;;;;;;55.05;28.75;;;;;;;0.49;100.00;102138.80;1692332;83;21058;-83
2021/12/12 06:08:01;;;;;;;55.45;27.62;;;;;;;0.37;100.00;102152.98;1694352;84;21051;-84
2021/12/12 06:10:29;;;;;;;52.10;26.33;;;;;;;0.31;100.00;102147.49;1695125;83;21140;-83
2021/12/12 06:12:56;;;;;;;53.05;28.17;;;;;;;0.31;100.00;102145.77;1707306;83;22048;-83
2021/12/12 06:15:27;;;;;;;55.12;27.80;;;;;;;0.28;100.00;102150.06;1709607;82;21492;-85
2021/12/12 06:17:54;;;;;;;55.78;28.75;;;;;;;0.27;100.00;102153.07;1682934;82;21093;-83
2021/12/12 06:20:22;;;;;;;59.58;29.12;;;;;;;0.29;100.00;102147.48;1744122;81;21617;-83
2021/12/12 06:22:53;;;;;;;52.62;26.75;;;;;;;0.38;100.00;102149.14;1703001;83;21229;-83
2021/12/12 06:25:20;;;;;;;53.05;27.42;;;;;;;0.44;100.00;102143.13;1725147;82;21630;-83
2021/12/12 06:27:48;;;;;;;53.25;27.13;;;;;;;0.49;100.00;102154.17;1725173;82;21508;-82
2021/12/12 06:30:20;;;;;;;55.00;27.45;;;;;;;0.56;100.00;102151.14;1725609;82;21587;-84
2021/12/12 06:32:49;;;;;;;42.67;23.80;;;;;;;0.63;100.00;102146.38;1736450;81;21056;-82
2021/12/12 06:35:18;;;;;;;42.60;23.95;;;;;;;0.65;100.00;102142.06;1733230;82;21142;-83
2021/12/12 06:37:45;;;;;;;40.55;23.10;;;;;;;0.63;100.00;102141.25;1719623;81;21061;-82
2021/12/12 06:40:17;;;;;;;43.58;22.58;;;;;;;0.58;100.00;102143.84;1732041;81;21041;-82
2021/12/12 06:42:44;;;;;;;35.38;21.40;;;;;;;0.61;100.00;102133.55;1702627;82;21073;-82
2021/12/12 06:45:13;;;;;;;37.70;21.55;;;;;;;0.63;100.00;102139.52;1725396;81;21041;-83
2021/12/12 06:47:40;;;;;;;34.75;21.07;;;;;;;0.59;100.00;102139.14;1704529;82;21850;-81
2021/12/12 06:50:12;;;;;;;33.70;20.15;;;;;;;0.63;100.00;102154.06;1732204;81;21580;-85
2021/12/12 06:52:39;;;;;;;34.80;20.88;;;;;;;0.58;100.00;102146.41;1712631;82;21121;-82
2021/12/12 06:55:10;;;;;;;37.85;22.05;;;;;;;0.49;100.00;102151.61;1719156;82;21018;-81
2021/12/12 06:57:48;;;;;;;;;;;;;;;0.49;100.00;102147.77;1731654;81;21104;-80
2021/12/12 07:00:20;;;;;;;36.90;21.50;;;;;;;0.52;100.00;102150.73;1692669;83;21113;-82
2021/12/12 07:02:50;;;;;;;37.28;22.37;;;;;;;0.51;100.00;102152.46;1719116;81;21029;-82
2021/12/12 07:05:22;;;;;;;35.17;21.65;;;;;;;0.50;100.00;102153.73;1757872;79;20985;-80
2021/12/12 07:07:51;;;;;;;42.83;24.02;;;;;;;0.46;100.00;102161.47;1754649;80;21071;-81
2021/12/12 07:10:22;;;;;;;37.83;20.17;;;;;;;0.40;100.00;102156.36;1735894;81;21100;-81
2021/12/12 07:12:55;;;;;;;37.28;21.07;;;;;;;0.33;100.00;102152.15;1752758;81;21881;-85
2021/12/12 07:15:21;;;;;;;42.62;22.05;;;;;;;0.29;100.00;102151.33;1753787;80;21082;-81
2021/12/12 07:17:49;;;;;;;36.63;22.35;;;;;;;0.25;100.00;102163.75;1754482;80;21076;-81
2021/12/12 07:20:16;;;;;;;41.73;24.20;;;;;;;0.24;100.00;102155.64;1755799;80;21103;-81
2021/12/12 07:22:43;;;;;;;43.63;23.30;;;;;;;0.26;100.00;102151.37;1753968;80;21038;-81
2021/12/12 07:25:10;;;;;;;44.53;24.77;;;;;;;0.30;100.00;102151.75;1753455;80;21891;-81
2021/12/12 07:27:38;;;;;;;44.08;25.12;;;;;;;0.31;100.00;102142.36;1734092;81;21054;-81
2021/12/12 07:30:09;;;;;;;43.78;23.73;;;;;;;0.32;100.00;102142.79;1764417;81;21065;-81
2021/12/12 07:32:38;;;;;;;39.10;22.42;;;;;;;0.29;100.00;102150.05;1729475;81;21050;-82
2021/12/12 07:35:11;;;;;;;45.58;25.10;;;;;;;0.31;100.00;102143.20;1763659;79;21508;-82
2021/12/12 07:37:39;;;;;;;45.73;25.15;;;;;;;0.30;100.00;102137.66;1675851;85;21460;-83
2021/12/12 07:40:08;;;;;;;41.02;23.05;;;;;;;0.38;100.00;102141.86;1694148;83;21490;-85
2021/12/12 07:42:36;;;;;;;54.47;24.70;;;;;;;0.44;100.00;102140.56;1708045;82;21792;-83
2021/12/12 07:45:06;;;;;;;43.45;22.07;;;;;;;0.58;100.00;102140.00;1694822;82;21059;-82
2021/12/12 07:47:35;;;;;;;45.98;23.20;;;;;;;0.62;100.00;102139.09;1708887;82;21066;-81
2021/12/12 07:50:07;;;;;;;41.00;21.40;;;;;;;0.52;100.00;102136.63;1715260;81;21845;-81
2021/12/12 07:52:36;;;;;;;47.88;24.95;;;;;;;0.40;100.00;102132.02;1703374;82;21530;-81
2021/12/12 07:55:05;;;;;;;45.25;23.38;;;;;;;0.36;100.00;102126.95;1698995;83;21019;-82
2021/12/12 07:57:33;;;;;;;49.98;24.60;;;;;;;0.30;100.00;102126.13;1725043;81;21054;-82
2021/12/12 08:00:01;;;;;;;43.80;22.67;;;;;;;0.27;100.00;102110.79;1738645;80;21019;-82
2021/12/12 08:02:29;;;;;;;45.23;23.50;;;;;;;0.25;100.00;102120.20;1725277;82;21516;-80
2021/12/12 08:04:57;;;;;;;45.48;24.20;;;;;;;0.24;100.00;102125.34;1742494;81;21223;-79
2021/12/12 08:07:25;;;;;;;53.23;26.40;;;;;;;0.21;100.00;102122.34;1721755;82;21114;-85
2021/12/12 08:09:52;;;;;;;55.65;26.15;;;;;;;0.20;100.00;102128.33;1736905;81;21049;-85
2021/12/12 08:12:25;;;;;;;54.13;27.42;;;;;;;0.23;100.00;102128.31;1718923;82;21557;-81
2021/12/12 08:14:52;;;;;;;56.05;26.80;;;;;;;0.27;100.00;102117.61;1724445;82;21211;-84
2021/12/12 08:17:21;;;;;;;65.28;29.98;;;;;;;0.29;100.00;102118.02;1721346;81;21104;-81
2021/12/12 08:19:55;;;;;;;65.15;25.75;;;;;;;0.32;100.00;102121.00;1707977;83;21081;-82
2021/12/12 08:22:25;;;;;;;67.87;28.92;;;;;;;0.36;100.00;102119.27;1726351;82;21043;-81
2021/12/12 08:24:57;;;;;;;60.67;30.10;;;;;;;0.33;100.00;102123.96;1728428;81;21066;-82
2021/12/12 08:27:27;;;;;;;56.35;28.90;;;;;;;0.32;100.00;102118.45;1701203;83;21120;-82
2021/12/12 08:29:57;;;;;;;56.13;28.90;;;;;;;0.35;100.00;102116.28;1699086;82;21047;-81
2021/12/12 08:32:25;;;;;;;46.53;25.85;;;;;;;0.34;100.00;102112.02;1696703;82;21663;-81
2021/12/12 08:34:52;;;;;;;43.92;21.52;;;;;;;0.33;100.00;102103.46;1692358;82;21090;-81
2021/12/12 08:37:20;;;;;;;45.17;25.57;;;;;;;0.40;100.00;102110.67;1725097;81;21526;-81
2021/12/12 08:39:47;;;;;;;60.80;28.50;;;;;;;0.38;100.00;102100.86;1697126;83;21880;-83
2021/12/12 08:42:15;;;;;;;45.30;24.52;;;;;;;0.35;100.00;102098.34;1696668;82;21151;-82
2021/12/12 08:44:42;;;;;;;45.12;23.42;;;;;;;0.33;100.00;102103.46;1697272;82;21072;-82
2021/12/12 08:47:12;;;;;;;46.50;25.45;;;;;;;0.33;100.00;102107.75;1683413;83;21521;-81
2021/12/12 08:49:42;;;;;;;45.20;24.77;;;;;;;0.35;100.00;102100.46;1686828;83;21124;-82
2021/12/12 08:52:17;;;;;;;50.30;25.72;;;;;;;0.38;100.00;102097.89;1702751;83;21538;-83
2021/12/12 08:54:49;;;;;;;55.65;28.20;;;;;;;0.38;100.00;102094.04;1699289;83;21054;-81
2021/12/12 08:57:34;;;;;;;58.02;29.48;;;;;;;0.39;100.00;102092.31;1658321;83;21091;-81
2021/12/12 09:00:07;;;;;;;68.67;32.45;;;;;;;0.43;100.00;102090.16;1706877;82;21094;-83
2021/12/12 09:02:36;;;;;;;86.45;38.10;;;;;;;0.50;100.00;102081.55;1700541;84;21090;-81
2021/12/12 09:05:18;;;;;;;106.85;44.75;;;;;;;0.54;100.00;102080.63;1683150;83;21237;-82
2021/12/12 09:07:49;;;;;;;101.45;42.90;;;;;;;0.53;100.00;102075.53;1708787;82;20998;-82
2021/12/12 09:10:26;;;;;;;93.80;41.92;;;;;;;0.45;100.00;102084.56;1728961;82;21019;-81
2021/12/12 09:12:59;;;;;;;86.80;39.55;;;;;;;0.40;100.00;102079.92;1721401;82;21845;-83
2021/12/12 09:15:33;;;;;;;88.60;37.00;;;;;;;0.35;100.00;102067.59;1700574;83;21006;-80
2021/12/12 09:18:12;;;;;;;76.42;34.67;;;;;;;0.38;100.00;102060.72;1667500;83;21503;-83
2021/12/12 09:20:52;;;;;;;68.78;33.08;;;;;;;0.43;100.00;102063.25;1701569;82;21051;-82
2021/12/12 09:23:25;;;;;;;64.65;30.75;;;;;;;0.43;100.00;102055.55;1705153;83;21090;-82
2021/12/12 09:26:07;;;;;;;68.45;32.58;;;;;;;0.43;100.00;102053.83;1694130;83;21085;-81
2021/12/12 09:28:54;;;;;;;60.52;30.02;;;;;;;0.43;100.00;102059.41;1729449;82;21093;-82
2021/12/12 09:31:32;;;;;;;74.47;33.83;;;;;;;0.43;100.00;102050.43;1692878;84;21670;-81
2021/12/12 09:34:11;;;;;;;100.78;44.40;;;;;;;0.50;100.00;102049.91;1728630;82;21033;-83
2021/12/12 09:36:49;;;;;;;103.55;45.50;;;;;;;0.47;100.00;102057.20;1675073;83;21045;-84
2021/12/12 09:39:24;;;;;;;107.43;47.08;;;;;;;0.41;100.00;102052.15;1703161;82;21111;-82
2021/12/12 09:42:29;;;;;;;97.80;46.55;;;;;;;0.36;100.00;102052.19;1709208;82;21056;-81
2021/12/12 09:45:24;;;;;;;111.83;49.70;;;;;;;0.30;100.00;102053.09;1674032;83;21549;-81
2021/12/12 09:52:01;;;;;;;105.85;49.40;;;;;;;0.26;100.00;102055.69;1699935;83;21090;-82
2021/12/12 09:54:40;;;;;;;110.30;51.05;;;;;;;0.21;100.00;102051.89;1688885;84;21101;-84
2021/12/12 09:57:18;;;;;;;107.92;47.15;;;;;;;0.15;100.00;102059.63;1741378;82;21085;-84
2021/12/12 10:00:17;;;;;;;114.22;51.25;;;;;;;0.06;100.00;102046.89;1712427;82;21346;-87
2021/12/12 10:03:08;;;;;;;116.55;50.65;;;;;;;-0.02;100.00;102054.21;1678219;83;21602;-84
2021/12/12 10:06:16;;;;;;;104.40;46.87;;;;;;;-0.06;100.00;102054.24;1702329;83;21114;-84
2021/12/12 10:09:10;;;;;;;101.80;42.85;;;;;;;-0.06;100.00;102054.24;1714328;81;21744;-83
2021/12/12 10:12:16;;;;;;;101.07;42.40;;;;;;;-0.01;100.00;102052.52;1741173;81;21069;-83
2021/12/12 10:15:08;;;;;;;103.05;44.58;;;;;;;0.06;100.00;102049.45;1719240;82;21061;-83
2021/12/12 10:17:43;;;;;;;83.87;40.23;;;;;;;0.13;100.00;102039.58;1743376;82;21660;-83
2021/12/12 10:20:23;;;;;;;77.00;38.05;;;;;;;0.18;100.00;102032.72;1737644;81;21033;-83
2021/12/12 10:23:18;;;;;;;92.62;43.78;;;;;;;0.21;100.00;102032.67;1746871;80;21101;-87
2021/12/12 10:25:55;;;;;;;77.00;41.23;;;;;;;0.29;100.00;102031.33;1742879;81;21116;-84
2021/12/12 10:28:31;;;;;;;97.50;47.65;;;;;;;0.28;100.00;102031.75;1748011;81;21813;-86
2021/12/12 10:31:12;;;;;;;82.08;43.50;;;;;;;0.28;100.00;102033.47;1746106;80;21112;-83
2021/12/12 10:34:01;;;;;;;89.92;43.45;;;;;;;0.25;100.00;102034.36;1731974;81;21068;-84
2021/12/12 10:36:52;;;;;;;94.60;43.78;;;;;;;0.27;100.00;102034.33;1743972;81;21025;-85
2021/12/12 10:39:24;;;;;;;88.03;42.38;;;;;;;0.29;100.00;102036.45;1741918;80;21078;-85
2021/12/12 10:42:03;;;;;;;91.72;45.28;;;;;;;0.28;100.00;102035.59;1743330;80;21151;-83
2021/12/12 10:44:41;;;;;;;95.20;46.85;;;;;;;0.32;100.00;102040.28;1741486;81;21033;-83
2021/12/12 10:47:20;;;;;;;96.87;46.40;;;;;;;0.25;100.00;102034.36;1744750;82;21039;-82
2021/12/12 10:50:13;;;;;;;84.58;42.75;;;;;;;0.19;100.00;102030.58;1721651;82;21026;-85
2021/12/12 10:53:06;;;;;;;92.92;48.63;;;;;;;0.21;100.00;102031.83;1707747;83;21085;-81
2021/12/12 10:55:45;;;;;;;97.25;44.85;;;;;;;0.28;100.00;102032.19;1704762;83;22205;-82
2021/12/12 10:58:26;;;;;;;96.08;45.92;;;;;;;0.28;100.00;102032.19;1723839;82;21398;-86
2021/12/12 11:01:01;;;;;;;83.72;45.70;;;;;;;0.33;100.00;102027.03;1709385;82;21063;-82
2021/12/12 11:03:43;;;;;;;83.97;43.40;;;;;;;0.36;100.00;102032.14;1683098;83;21519;-82
2021/12/12 11:06:18;;;;;;;94.17;44.40;;;;;;;0.38;100.00;102031.66;1689149;83;21045;-83
2021/12/12 11:09:03;;;;;;;83.87;41.60;;;;;;;0.36;100.00;102030.41;1726662;82;21323;-82
2021/12/12 11:11:36;;;;;;;87.00;44.05;;;;;;;0.36;100.00;102027.84;1763321;79;20983;-86
2021/12/12 11:14:18;;;;;;;84.80;43.68;;;;;;;0.40;100.00;102024.81;1784421;78;20983;-83
2021/12/12 11:16:53;;;;;;;91.60;43.48;;;;;;;0.40;100.00;102029.94;1755182;80;21023;-85
2021/12/12 11:19:49;;;;;;;87.55;44.98;;;;;;;0.40;100.00;102024.81;1755830;80;21503;-82
2021/12/12 11:22:28;;;;;;;92.60;45.83;;;;;;;0.38;100.00;102026.54;1781344;79;21776;-83
2021/12/12 11:25:13;;;;;;;89.10;42.70;;;;;;;0.34;100.00;102019.76;1766191;79;21015;-82
2021/12/12 11:27:48;;;;;;;82.40;41.77;;;;;;;0.34;100.00;102014.63;1768715;79;21062;-83
2021/12/12 11:30:21;;;;;;;93.37;44.90;;;;;;;0.45;100.00;102014.08;1733989;80;21088;-82
2021/12/12 11:32:52;;;;;;;82.95;41.88;;;;;;;0.44;100.00;102014.52;1672268;83;21065;-83
2021/12/12 11:35:24;;;;;;;72.03;35.80;;;;;;;0.42;100.00;102017.52;1707169;82;21091;-82
2021/12/12 11:38:12;;;;;;;87.08;44.50;;;;;;;0.44;100.00;102004.27;1699259;83;21071;-82
2021/12/12 11:41:02;;;;;;;80.87;41.02;;;;;;;0.45;100.00;102005.11;1728647;80;21058;-82
2021/12/12 11:44:06;;;;;;;81.53;39.92;;;;;;;0.47;100.00;102005.95;1763690;80;21008;-83
2021/12/12 11:46:41;;;;;;;87.42;43.85;;;;;;;0.51;100.00;101999.94;1782925;79;21049;-82
2021/12/12 11:49:25;;;;;;;89.80;47.10;;;;;;;0.52;100.00;101990.07;1777919;79;21146;-83
2021/12/12 11:52:03;;;;;;;91.82;47.17;;;;;;;0.55;100.00;101984.09;1777884;79;20963;-83
2021/12/12 11:55:01;;;;;;;86.67;44.83;;;;;;;0.56;100.00;101984.06;1765539;79;22164;-82
2021/12/12 11:57:42;;;;;;;82.27;43.92;;;;;;;0.58;100.00;101990.03;1756682;79;21067;-84
2021/12/12 12:00:18;;;;;;;89.67;47.30;;;;;;;0.67;100.00;101980.09;1687874;83;21054;-87
2021/12/12 12:03:27;;;;;;;95.22;48.25;;;;;;;0.74;100.00;101979.14;1722329;82;21330;-82
2021/12/12 12:06:31;;;;;;;79.00;42.15;;;;;;;0.72;100.00;101972.34;1713358;81;48328;-82